Terminal Aerodrome Forecast
Issued by NWS

Home | Current Version | Previous Version | Text Only | Print | Product List | Glossary On
Versions: 1 2 3 4 5 6 7 8 9 10 11 12 13 14 15 16 17 18 19 20 21 22 23 24 25
000
FTAK31 PAFA 232212 AAA
TAFAUN
TAF AMD
PAUN 232212Z 2322/2418 11010KT P6SM OVC080
     FM240000 13010KT 3SM -SN BR OVC015
     FM240600 27007KT 5SM -SHSN BR OVC015
     FM240900 27010KT P6SM VCSH BKN015 OVC025=

USA.gov is the U.S. government's official web portal to all federal, state and local government web resources and services.